createdAt,value
2022-12-25T00:07:16.592Z,972.01
2022-12-25T00:17:16.809Z,971.85
2022-12-25T00:27:16.977Z,972.06
2022-12-25T00:37:17.212Z,972.02
2022-12-25T00:47:17.468Z,971.85
2022-12-25T00:57:17.805Z,972.02
2022-12-25T01:07:17.690Z,972.15
2022-12-25T01:17:17.885Z,972.07
2022-12-25T01:27:18.108Z,972.03
2022-12-25T01:37:18.412Z,972.00
2022-12-25T01:47:18.527Z,972.23
2022-12-25T01:57:18.708Z,972.22
2022-12-25T02:07:18.874Z,972.22
2022-12-25T02:17:19.194Z,972.23
2022-12-25T02:27:19.335Z,972.17
2022-12-25T02:37:19.613Z,972.22
2022-12-25T02:47:19.567Z,972.00
2022-12-25T02:57:19.786Z,972.14
2022-12-25T03:07:19.965Z,972.08
2022-12-25T03:17:20.494Z,972.07
2022-12-25T03:27:20.362Z,971.93
2022-12-25T03:37:20.475Z,971.89
2022-12-25T03:47:20.635Z,971.74
2022-12-25T03:57:20.848Z,971.68
2022-12-25T04:07:21.006Z,971.63
2022-12-25T04:17:21.356Z,971.51
2022-12-25T04:27:21.455Z,971.65
2022-12-25T04:37:21.686Z,971.58
2022-12-25T04:47:21.785Z,971.50
2022-12-25T04:57:22.002Z,971.57
2022-12-25T05:07:22.198Z,971.48
2022-12-25T05:17:22.454Z,971.34
2022-12-25T05:27:22.549Z,971.25
2022-12-25T05:37:22.661Z,971.13
2022-12-25T05:47:22.853Z,971.08
2022-12-25T05:57:23.112Z,971.02
2022-12-25T06:07:23.163Z,971.00
2022-12-25T06:17:23.658Z,970.97
2022-12-25T06:27:23.483Z,970.81
2022-12-25T06:37:23.704Z,970.55
2022-12-25T06:47:23.853Z,970.67
2022-12-25T06:57:24.156Z,970.77
2022-12-25T07:07:24.214Z,970.88
2022-12-25T07:17:24.407Z,970.91
2022-12-25T07:27:24.659Z,970.94
2022-12-25T07:37:24.655Z,970.91
2022-12-25T07:47:24.708Z,970.79
2022-12-25T07:57:24.918Z,970.64
2022-12-25T08:07:25.096Z,970.65
2022-12-25T08:17:25.295Z,970.54
2022-12-25T08:27:25.480Z,970.66
2022-12-25T08:37:25.683Z,970.44
2022-12-25T08:47:25.958Z,970.35
2022-12-25T08:57:26.267Z,970.39
2022-12-25T09:07:26.219Z,970.29
2022-12-25T09:17:26.523Z,970.11
2022-12-25T09:27:26.780Z,969.86
2022-12-25T09:37:26.743Z,969.81
2022-12-25T09:47:27.017Z,969.86
2022-12-25T09:57:27.320Z,969.86
2022-12-25T10:07:27.254Z,969.67
2022-12-25T10:17:27.486Z,969.86
2022-12-25T10:27:27.684Z,969.75
2022-12-25T10:37:27.898Z,969.68
2022-12-25T10:47:28.079Z,969.64
2022-12-25T10:57:28.393Z,969.26
2022-12-25T11:07:28.632Z,969.06
2022-12-25T11:17:28.609Z,969.18
2022-12-25T11:27:28.795Z,969.09
2022-12-25T11:37:29.185Z,969.08
2022-12-25T11:47:29.114Z,968.87
2022-12-25T11:57:29.332Z,968.81
2022-12-25T12:07:29.505Z,968.62
2022-12-25T12:17:29.697Z,968.61
2022-12-25T12:27:29.868Z,968.29
2022-12-25T12:37:30.081Z,968.02
2022-12-25T12:47:30.284Z,968.08
2022-12-25T12:57:30.491Z,968.10
2022-12-25T13:07:30.654Z,968.10
2022-12-25T13:17:30.871Z,967.98
2022-12-25T13:27:31.053Z,967.96
2022-12-25T13:37:31.201Z,968.08
2022-12-25T13:47:31.356Z,968.22
2022-12-25T13:57:31.559Z,968.12
2022-12-25T14:07:31.713Z,968.13
2022-12-25T14:17:32.092Z,968.06
2022-12-25T14:27:32.052Z,967.94
2022-12-25T14:37:32.259Z,968.02
2022-12-25T14:47:32.423Z,968.06
2022-12-25T14:57:32.607Z,968.08
2022-12-25T15:07:32.838Z,968.23
2022-12-25T15:17:32.809Z,968.33
2022-12-25T15:27:32.979Z,968.36
2022-12-25T15:37:33.198Z,968.37
2022-12-25T15:47:33.647Z,968.32
2022-12-25T15:57:33.658Z,968.30
2022-12-25T16:07:33.898Z,968.39
2022-12-25T16:17:33.908Z,968.42
2022-12-25T16:27:33.956Z,968.53
2022-12-25T16:37:34.170Z,968.64
2022-12-25T16:47:34.333Z,968.62
2022-12-25T16:57:34.714Z,968.54
2022-12-25T17:07:34.668Z,968.53
2022-12-25T17:17:34.867Z,968.63
2022-12-25T17:27:35.066Z,968.61
2022-12-25T17:37:35.273Z,968.69
2022-12-25T17:47:35.459Z,968.63
2022-12-25T17:57:35.764Z,968.80
2022-12-25T18:07:35.697Z,968.95
2022-12-25T18:17:35.897Z,969.01
2022-12-25T18:27:36.088Z,969.05
2022-12-25T18:37:40.197Z,969.19
2022-12-25T18:47:36.450Z,969.19
2022-12-25T18:57:36.634Z,969.29
2022-12-25T19:07:36.849Z,969.24
2022-12-25T19:17:36.994Z,969.34
2022-12-25T19:27:37.191Z,969.35
2022-12-25T19:37:37.400Z,969.45
2022-12-25T19:47:37.474Z,969.44
2022-12-25T19:57:37.654Z,969.55
2022-12-25T20:07:37.982Z,969.57
2022-12-25T20:17:38.078Z,969.61
2022-12-25T20:27:38.257Z,969.67
2022-12-25T20:37:38.471Z,969.64
2022-12-25T20:47:38.632Z,969.83
2022-12-25T20:57:38.834Z,969.85
2022-12-25T21:07:39.013Z,969.92
2022-12-25T21:17:39.476Z,969.84
2022-12-25T21:27:39.417Z,969.83
2022-12-25T21:37:39.726Z,969.91
2022-12-25T21:48:02.393Z,969.85
2022-12-25T21:57:40.832Z,970.06
2022-12-25T22:07:39.900Z,969.98
2022-12-25T22:17:40.101Z,970.04
2022-12-25T22:27:40.288Z,970.30
2022-12-25T22:37:40.514Z,970.22
2022-12-25T22:47:40.681Z,970.42
2022-12-25T22:57:40.889Z,970.19
2022-12-25T23:07:41.069Z,970.33
2022-12-25T23:17:41.262Z,970.50
2022-12-25T23:27:41.443Z,970.74
2022-12-25T23:37:41.654Z,970.70
2022-12-25T23:47:41.812Z,970.79
2022-12-25T23:57:41.996Z,970.77
